sensor_id;sensor_type;location;lat;lon;timestamp;temperature;humidity
46732;DHT22;32477;51.474;5.696;2023-04-03T00:00:47;-0.10;99.90
46732;DHT22;32477;51.474;5.696;2023-04-03T00:03:14;0.00;99.90
46732;DHT22;32477;51.474;5.696;2023-04-03T00:05:40;0.00;99.90
46732;DHT22;32477;51.474;5.696;2023-04-03T00:08:07;0.00;99.90
46732;DHT22;32477;51.474;5.696;2023-04-03T00:10:35;0.10;99.90
46732;DHT22;32477;51.474;5.696;2023-04-03T00:13:01;0.10;99.90
46732;DHT22;32477;51.474;5.696;2023-04-03T00:15:27;0.10;99.90
46732;DHT22;32477;51.474;5.696;2023-04-03T00:17:53;0.00;99.90
46732;DHT22;32477;51.474;5.696;2023-04-03T00:20:18;0.00;99.90
46732;DHT22;32477;51.474;5.696;2023-04-03T00:22:44;0.00;99.90
46732;DHT22;32477;51.474;5.696;2023-04-03T00:25:11;-0.10;99.90
46732;DHT22;32477;51.474;5.696;2023-04-03T00:27:38;-0.20;99.90
46732;DHT22;32477;51.474;5.696;2023-04-03T00:30:06;-0.30;99.90
46732;DHT22;32477;51.474;5.696;2023-04-03T00:32:32;-0.30;99.90
46732;DHT22;32477;51.474;5.696;2023-04-03T00:34:58;-0.20;99.90
46732;DHT22;32477;51.474;5.696;2023-04-03T00:37:23;-0.20;99.90
46732;DHT22;32477;51.474;5.696;2023-04-03T00:39:50;-0.20;99.90
46732;DHT22;32477;51.474;5.696;2023-04-03T00:42:16;-0.30;99.90
46732;DHT22;32477;51.474;5.696;2023-04-03T00:47:12;-0.20;99.90
46732;DHT22;32477;51.474;5.696;2023-04-03T00:49:38;-0.10;99.90
46732;DHT22;32477;51.474;5.696;2023-04-03T00:52:13;-0.10;99.90
46732;DHT22;32477;51.474;5.696;2023-04-03T00:54:41;-0.20;99.90
46732;DHT22;32477;51.474;5.696;2023-04-03T00:57:08;-0.30;99.90
46732;DHT22;32477;51.474;5.696;2023-04-03T00:59:40;-0.40;99.90
46732;DHT22;32477;51.474;5.696;2023-04-03T01:02:07;-0.50;99.90
46732;DHT22;32477;51.474;5.696;2023-04-03T01:04:34;-0.30;99.90
46732;DHT22;32477;51.474;5.696;2023-04-03T01:07:07;-0.30;99.90
46732;DHT22;32477;51.474;5.696;2023-04-03T01:09:34;-0.20;99.90
46732;DHT22;32477;51.474;5.696;2023-04-03T01:12:18;-0.20;99.90
46732;DHT22;32477;51.474;5.696;2023-04-03T01:14:45;0.00;99.90
46732;DHT22;32477;51.474;5.696;2023-04-03T01:17:42;0.00;99.90
46732;DHT22;32477;51.474;5.696;2023-04-03T01:25:43;0.10;99.90
46732;DHT22;32477;51.474;5.696;2023-04-03T01:28:12;0.10;99.90
46732;DHT22;32477;51.474;5.696;2023-04-03T01:33:30;0.00;99.90
46732;DHT22;32477;51.474;5.696;2023-04-03T01:35:55;0.20;99.90
46732;DHT22;32477;51.474;5.696;2023-04-03T01:38:21;0.30;99.90
46732;DHT22;32477;51.474;5.696;2023-04-03T01:40:47;0.40;99.90
46732;DHT22;32477;51.474;5.696;2023-04-03T01:43:13;0.50;99.90
46732;DHT22;32477;51.474;5.696;2023-04-03T01:45:38;0.50;99.90
46732;DHT22;32477;51.474;5.696;2023-04-03T01:48:04;0.40;99.90
46732;DHT22;32477;51.474;5.696;2023-04-03T01:50:30;0.40;99.90
46732;DHT22;32477;51.474;5.696;2023-04-03T01:52:56;0.50;99.90
46732;DHT22;32477;51.474;5.696;2023-04-03T01:55:22;0.50;99.90
46732;DHT22;32477;51.474;5.696;2023-04-03T01:57:47;0.60;99.90
46732;DHT22;32477;51.474;5.696;2023-04-03T02:00:13;0.70;99.90
46732;DHT22;32477;51.474;5.696;2023-04-03T02:02:39;0.60;99.90
46732;DHT22;32477;51.474;5.696;2023-04-03T02:05:06;0.50;99.90
46732;DHT22;32477;51.474;5.696;2023-04-03T02:07:31;0.40;99.90
46732;DHT22;32477;51.474;5.696;2023-04-03T02:09:57;0.40;99.90
46732;DHT22;32477;51.474;5.696;2023-04-03T02:12:23;0.30;99.90
46732;DHT22;32477;51.474;5.696;2023-04-03T02:14:48;0.30;99.90
46732;DHT22;32477;51.474;5.696;2023-04-03T02:17:14;0.30;99.90
46732;DHT22;32477;51.474;5.696;2023-04-03T02:19:40;0.40;99.90
46732;DHT22;32477;51.474;5.696;2023-04-03T02:22:06;0.40;99.90
46732;DHT22;32477;51.474;5.696;2023-04-03T02:24:32;0.40;99.90
46732;DHT22;32477;51.474;5.696;2023-04-03T02:26:58;0.50;99.90
46732;DHT22;32477;51.474;5.696;2023-04-03T02:29:23;0.60;99.90
46732;DHT22;32477;51.474;5.696;2023-04-03T02:31:50;0.60;99.90
46732;DHT22;32477;51.474;5.696;2023-04-03T02:34:16;0.70;99.90
46732;DHT22;32477;51.474;5.696;2023-04-03T02:36:42;0.70;99.90
46732;DHT22;32477;51.474;5.696;2023-04-03T02:39:07;0.70;99.90
46732;DHT22;32477;51.474;5.696;2023-04-03T02:41:33;0.70;99.90
46732;DHT22;32477;51.474;5.696;2023-04-03T02:44:01;0.60;99.90
46732;DHT22;32477;51.474;5.696;2023-04-03T02:46:27;0.60;99.90
46732;DHT22;32477;51.474;5.696;2023-04-03T02:48:52;0.50;99.90
46732;DHT22;32477;51.474;5.696;2023-04-03T02:51:18;0.50;99.90
46732;DHT22;32477;51.474;5.696;2023-04-03T02:53:43;0.50;99.90
46732;DHT22;32477;51.474;5.696;2023-04-03T02:56:09;0.50;99.90
46732;DHT22;32477;51.474;5.696;2023-04-03T02:58:35;0.50;99.90
46732;DHT22;32477;51.474;5.696;2023-04-03T03:01:01;0.60;99.90
46732;DHT22;32477;51.474;5.696;2023-04-03T03:03:26;0.60;99.90
46732;DHT22;32477;51.474;5.696;2023-04-03T03:08:28;0.60;99.90
46732;DHT22;32477;51.474;5.696;2023-04-03T03:10:53;0.60;99.90
46732;DHT22;32477;51.474;5.696;2023-04-03T03:13:19;0.60;99.90
46732;DHT22;32477;51.474;5.696;2023-04-03T03:15:45;0.60;99.90
46732;DHT22;32477;51.474;5.696;2023-04-03T03:18:11;0.60;99.90
46732;DHT22;32477;51.474;5.696;2023-04-03T03:20:36;0.60;99.90
46732;DHT22;32477;51.474;5.696;2023-04-03T03:23:02;0.50;99.90
46732;DHT22;32477;51.474;5.696;2023-04-03T03:25:27;0.60;99.90
46732;DHT22;32477;51.474;5.696;2023-04-03T03:27:53;0.50;99.90
46732;DHT22;32477;51.474;5.696;2023-04-03T03:30:19;0.50;99.90
46732;DHT22;32477;51.474;5.696;2023-04-03T03:32:44;0.50;99.90
46732;DHT22;32477;51.474;5.696;2023-04-03T03:35:10;0.40;99.90
46732;DHT22;32477;51.474;5.696;2023-04-03T03:37:36;0.50;99.90
46732;DHT22;32477;51.474;5.696;2023-04-03T03:40:02;0.50;99.90
46732;DHT22;32477;51.474;5.696;2023-04-03T03:42:27;0.50;99.90
46732;DHT22;32477;51.474;5.696;2023-04-03T03:44:53;0.50;99.90
46732;DHT22;32477;51.474;5.696;2023-04-03T03:47:19;0.50;99.90
46732;DHT22;32477;51.474;5.696;2023-04-03T03:49:45;0.40;99.90
46732;DHT22;32477;51.474;5.696;2023-04-03T03:52:11;0.40;99.90
46732;DHT22;32477;51.474;5.696;2023-04-03T03:54:37;0.20;99.90
46732;DHT22;32477;51.474;5.696;2023-04-03T03:57:03;0.20;99.90
46732;DHT22;32477;51.474;5.696;2023-04-03T03:59:29;0.30;99.90
46732;DHT22;32477;51.474;5.696;2023-04-03T04:01:54;0.20;99.90
46732;DHT22;32477;51.474;5.696;2023-04-03T04:04:20;0.30;99.90
46732;DHT22;32477;51.474;5.696;2023-04-03T04:06:46;0.20;99.90
46732;DHT22;32477;51.474;5.696;2023-04-03T04:09:12;0.20;99.90
46732;DHT22;32477;51.474;5.696;2023-04-03T04:11:37;0.20;99.90
46732;DHT22;32477;51.474;5.696;2023-04-03T04:14:07;0.20;99.90
46732;DHT22;32477;51.474;5.696;2023-04-03T04:16:32;0.10;99.90
46732;DHT22;32477;51.474;5.696;2023-04-03T04:18:58;0.20;99.90
46732;DHT22;32477;51.474;5.696;2023-04-03T04:21:24;0.20;99.90
46732;DHT22;32477;51.474;5.696;2023-04-03T04:23:49;0.30;99.90
46732;DHT22;32477;51.474;5.696;2023-04-03T04:26:15;0.30;99.90
46732;DHT22;32477;51.474;5.696;2023-04-03T04:28:41;0.30;99.90
46732;DHT22;32477;51.474;5.696;2023-04-03T04:31:06;0.30;99.90
46732;DHT22;32477;51.474;5.696;2023-04-03T04:33:32;0.30;99.90
46732;DHT22;32477;51.474;5.696;2023-04-03T04:35:57;0.40;99.90
46732;DHT22;32477;51.474;5.696;2023-04-03T04:38:23;0.40;99.90
46732;DHT22;32477;51.474;5.696;2023-04-03T04:40:49;0.40;99.90
46732;DHT22;32477;51.474;5.696;2023-04-03T04:43:15;0.40;99.90
46732;DHT22;32477;51.474;5.696;2023-04-03T04:45:41;0.40;99.90
46732;DHT22;32477;51.474;5.696;2023-04-03T04:48:07;0.40;99.90
46732;DHT22;32477;51.474;5.696;2023-04-03T04:50:32;0.40;99.90
46732;DHT22;32477;51.474;5.696;2023-04-03T04:52:58;0.50;99.90
46732;DHT22;32477;51.474;5.696;2023-04-03T04:55:24;0.50;99.90
46732;DHT22;32477;51.474;5.696;2023-04-03T04:57:49;0.60;99.90
46732;DHT22;32477;51.474;5.696;2023-04-03T05:00:15;0.60;99.90
46732;DHT22;32477;51.474;5.696;2023-04-03T05:02:41;0.50;99.90
46732;DHT22;32477;51.474;5.696;2023-04-03T05:05:08;0.60;99.90
46732;DHT22;32477;51.474;5.696;2023-04-03T05:07:33;0.60;99.90
46732;DHT22;32477;51.474;5.696;2023-04-03T05:10:01;0.70;99.90
46732;DHT22;32477;51.474;5.696;2023-04-03T05:12:28;0.70;99.90
46732;DHT22;32477;51.474;5.696;2023-04-03T05:14:53;0.70;99.90
46732;DHT22;32477;51.474;5.696;2023-04-03T05:17:19;0.60;99.90
46732;DHT22;32477;51.474;5.696;2023-04-03T05:19:45;0.60;99.90
46732;DHT22;32477;51.474;5.696;2023-04-03T05:22:11;0.70;99.90
46732;DHT22;32477;51.474;5.696;2023-04-03T05:24:37;0.70;99.90
46732;DHT22;32477;51.474;5.696;2023-04-03T05:27:02;0.70;99.90
46732;DHT22;32477;51.474;5.696;2023-04-03T05:29:28;0.80;99.90
46732;DHT22;32477;51.474;5.696;2023-04-03T05:31:54;0.80;99.90
46732;DHT22;32477;51.474;5.696;2023-04-03T05:34:19;0.90;99.90
46732;DHT22;32477;51.474;5.696;2023-04-03T05:36:45;0.90;99.90
46732;DHT22;32477;51.474;5.696;2023-04-03T05:39:10;0.90;99.90
46732;DHT22;32477;51.474;5.696;2023-04-03T05:41:36;0.90;99.90
46732;DHT22;32477;51.474;5.696;2023-04-03T05:44:02;0.90;99.90
46732;DHT22;32477;51.474;5.696;2023-04-03T05:46:27;0.90;99.90
46732;DHT22;32477;51.474;5.696;2023-04-03T05:48:53;1.10;99.90
46732;DHT22;32477;51.474;5.696;2023-04-03T05:51:24;1.50;99.90
46732;DHT22;32477;51.474;5.696;2023-04-03T05:53:56;1.70;99.90
46732;DHT22;32477;51.474;5.696;2023-04-03T05:56:24;1.90;99.90
46732;DHT22;32477;51.474;5.696;2023-04-03T05:58:50;2.20;99.90
46732;DHT22;32477;51.474;5.696;2023-04-03T06:01:19;2.50;99.90
46732;DHT22;32477;51.474;5.696;2023-04-03T06:03:44;2.80;99.90
46732;DHT22;32477;51.474;5.696;2023-04-03T06:06:13;3.10;99.90
46732;DHT22;32477;51.474;5.696;2023-04-03T06:08:39;3.40;99.90
46732;DHT22;32477;51.474;5.696;2023-04-03T06:11:05;3.70;99.90
46732;DHT22;32477;51.474;5.696;2023-04-03T06:13:31;3.80;99.90
46732;DHT22;32477;51.474;5.696;2023-04-03T06:15:56;3.90;99.90
46732;DHT22;32477;51.474;5.696;2023-04-03T06:18:22;4.10;99.90
46732;DHT22;32477;51.474;5.696;2023-04-03T06:20:48;4.30;99.90
46732;DHT22;32477;51.474;5.696;2023-04-03T06:23:14;4.50;99.90
46732;DHT22;32477;51.474;5.696;2023-04-03T06:25:39;4.50;99.90
46732;DHT22;32477;51.474;5.696;2023-04-03T06:28:06;4.50;99.90
46732;DHT22;32477;51.474;5.696;2023-04-03T06:30:34;4.80;99.90
46732;DHT22;32477;51.474;5.696;2023-04-03T06:33:00;5.10;99.90
46732;DHT22;32477;51.474;5.696;2023-04-03T06:35:26;5.30;99.90
46732;DHT22;32477;51.474;5.696;2023-04-03T06:37:53;5.60;99.90
46732;DHT22;32477;51.474;5.696;2023-04-03T06:40:23;5.80;99.90
46732;DHT22;32477;51.474;5.696;2023-04-03T06:42:49;5.80;99.90
46732;DHT22;32477;51.474;5.696;2023-04-03T06:45:16;5.70;99.90
46732;DHT22;32477;51.474;5.696;2023-04-03T06:47:42;6.00;99.90
46732;DHT22;32477;51.474;5.696;2023-04-03T06:50:10;6.10;99.90
46732;DHT22;32477;51.474;5.696;2023-04-03T06:52:37;6.40;99.90
46732;DHT22;32477;51.474;5.696;2023-04-03T06:55:12;6.90;99.90
46732;DHT22;32477;51.474;5.696;2023-04-03T06:57:37;7.00;99.90
46732;DHT22;32477;51.474;5.696;2023-04-03T07:00:04;7.30;99.90
46732;DHT22;32477;51.474;5.696;2023-04-03T07:02:30;7.50;99.90
46732;DHT22;32477;51.474;5.696;2023-04-03T07:04:57;7.40;99.90
46732;DHT22;32477;51.474;5.696;2023-04-03T07:07:22;7.30;99.90
46732;DHT22;32477;51.474;5.696;2023-04-03T07:09:48;7.20;99.90
46732;DHT22;32477;51.474;5.696;2023-04-03T07:12:15;7.20;99.90
46732;DHT22;32477;51.474;5.696;2023-04-03T07:14:41;7.10;99.90
46732;DHT22;32477;51.474;5.696;2023-04-03T07:17:08;7.70;99.90
46732;DHT22;32477;51.474;5.696;2023-04-03T07:19:33;7.60;99.90
46732;DHT22;32477;51.474;5.696;2023-04-03T07:21:59;7.40;99.90
46732;DHT22;32477;51.474;5.696;2023-04-03T07:24:25;7.50;99.90
46732;DHT22;32477;51.474;5.696;2023-04-03T07:26:52;7.40;99.90
46732;DHT22;32477;51.474;5.696;2023-04-03T07:29:18;7.80;99.90
46732;DHT22;32477;51.474;5.696;2023-04-03T07:31:47;8.30;99.90
46732;DHT22;32477;51.474;5.696;2023-04-03T07:34:13;8.10;99.90
46732;DHT22;32477;51.474;5.696;2023-04-03T07:36:38;8.40;99.90
46732;DHT22;32477;51.474;5.696;2023-04-03T07:39:04;8.50;99.90
46732;DHT22;32477;51.474;5.696;2023-04-03T07:41:29;8.70;99.90
46732;DHT22;32477;51.474;5.696;2023-04-03T07:43:55;9.00;99.90
46732;DHT22;32477;51.474;5.696;2023-04-03T07:46:22;8.70;99.90
46732;DHT22;32477;51.474;5.696;2023-04-03T07:48:48;8.60;99.90
46732;DHT22;32477;51.474;5.696;2023-04-03T07:51:14;8.90;99.90
46732;DHT22;32477;51.474;5.696;2023-04-03T07:53:40;8.90;99.90
46732;DHT22;32477;51.474;5.696;2023-04-03T07:56:06;9.20;99.90
46732;DHT22;32477;51.474;5.696;2023-04-03T07:58:32;9.30;99.90
46732;DHT22;32477;51.474;5.696;2023-04-03T08:00:58;9.60;99.90
46732;DHT22;32477;51.474;5.696;2023-04-03T08:03:24;9.60;99.90
46732;DHT22;32477;51.474;5.696;2023-04-03T08:05:50;9.60;99.90
46732;DHT22;32477;51.474;5.696;2023-04-03T08:08:18;9.50;99.90
46732;DHT22;32477;51.474;5.696;2023-04-03T08:10:48;10.10;99.90
46732;DHT22;32477;51.474;5.696;2023-04-03T08:13:14;10.00;99.90
46732;DHT22;32477;51.474;5.696;2023-04-03T08:15:40;9.80;99.90
46732;DHT22;32477;51.474;5.696;2023-04-03T08:18:05;9.40;99.90
46732;DHT22;32477;51.474;5.696;2023-04-03T08:20:31;9.60;99.90
46732;DHT22;32477;51.474;5.696;2023-04-03T08:22:56;10.20;99.90
46732;DHT22;32477;51.474;5.696;2023-04-03T08:25:22;10.60;99.90
46732;DHT22;32477;51.474;5.696;2023-04-03T08:27:48;10.10;99.90
46732;DHT22;32477;51.474;5.696;2023-04-03T08:30:13;10.50;99.90
46732;DHT22;32477;51.474;5.696;2023-04-03T08:32:39;10.20;99.60
46732;DHT22;32477;51.474;5.696;2023-04-03T08:35:07;10.20;99.50
46732;DHT22;32477;51.474;5.696;2023-04-03T08:37:35;10.20;99.20
46732;DHT22;32477;51.474;5.696;2023-04-03T08:40:02;10.40;99.20
46732;DHT22;32477;51.474;5.696;2023-04-03T08:42:43;10.70;98.00
46732;DHT22;32477;51.474;5.696;2023-04-03T08:45:27;10.80;96.00
46732;DHT22;32477;51.474;5.696;2023-04-03T08:48:23;11.30;94.50
46732;DHT22;32477;51.474;5.696;2023-04-03T08:50:53;10.60;94.60
46732;DHT22;32477;51.474;5.696;2023-04-03T08:53:25;10.90;96.30
46732;DHT22;32477;51.474;5.696;2023-04-03T08:55:54;11.50;93.50
46732;DHT22;32477;51.474;5.696;2023-04-03T08:58:26;11.80;94.60
46732;DHT22;32477;51.474;5.696;2023-04-03T09:01:05;11.90;92.10
46732;DHT22;32477;51.474;5.696;2023-04-03T09:03:34;11.20;91.70
46732;DHT22;32477;51.474;5.696;2023-04-03T09:06:21;10.70;90.40
46732;DHT22;32477;51.474;5.696;2023-04-03T09:14:32;11.40;88.90
46732;DHT22;32477;51.474;5.696;2023-04-03T09:22:43;11.40;83.10
46732;DHT22;32477;51.474;5.696;2023-04-03T09:25:18;11.20;82.40
46732;DHT22;32477;51.474;5.696;2023-04-03T09:27:45;11.60;81.60
46732;DHT22;32477;51.474;5.696;2023-04-03T09:30:23;12.10;81.70
46732;DHT22;32477;51.474;5.696;2023-04-03T09:32:52;12.60;77.30
46732;DHT22;32477;51.474;5.696;2023-04-03T09:35:27;12.40;79.10
46732;DHT22;32477;51.474;5.696;2023-04-03T09:40:39;12.40;76.60
46732;DHT22;32477;51.474;5.696;2023-04-03T09:45:52;12.70;74.00
46732;DHT22;32477;51.474;5.696;2023-04-03T09:48:24;12.30;73.00
46732;DHT22;32477;51.474;5.696;2023-04-03T09:53:41;12.60;73.30
46732;DHT22;32477;51.474;5.696;2023-04-03T09:58:47;12.30;71.30
46732;DHT22;32477;51.474;5.696;2023-04-03T10:01:32;12.70;73.10
46732;DHT22;32477;51.474;5.696;2023-04-03T10:04:07;12.90;68.30
46732;DHT22;32477;51.474;5.696;2023-04-03T10:06:35;12.50;68.70
46732;DHT22;32477;51.474;5.696;2023-04-03T10:09:06;12.40;68.80
46732;DHT22;32477;51.474;5.696;2023-04-03T10:12:06;12.20;68.80
46732;DHT22;32477;51.474;5.696;2023-04-03T10:17:45;12.60;69.90
46732;DHT22;32477;51.474;5.696;2023-04-03T10:20:34;13.00;67.10
46732;DHT22;32477;51.474;5.696;2023-04-03T10:23:18;12.50;66.70
46732;DHT22;32477;51.474;5.696;2023-04-03T10:31:53;11.70;65.20
46732;DHT22;32477;51.474;5.696;2023-04-03T10:34:29;12.30;63.10
46732;DHT22;32477;51.474;5.696;2023-04-03T10:45:46;13.20;61.60
46732;DHT22;32477;51.474;5.696;2023-04-03T10:51:11;13.10;60.90
46732;DHT22;32477;51.474;5.696;2023-04-03T10:58:43;13.00;59.80
46732;DHT22;32477;51.474;5.696;2023-04-03T11:01:14;12.10;60.50
46732;DHT22;32477;51.474;5.696;2023-04-03T11:03:49;11.80;62.20
46732;DHT22;32477;51.474;5.696;2023-04-03T11:06:20;11.80;61.70
46732;DHT22;32477;51.474;5.696;2023-04-03T11:08:53;12.10;60.40
46732;DHT22;32477;51.474;5.696;2023-04-03T11:11:25;12.10;61.20
46732;DHT22;32477;51.474;5.696;2023-04-03T11:13:57;12.00;60.60
46732;DHT22;32477;51.474;5.696;2023-04-03T11:16:30;12.30;59.40
46732;DHT22;32477;51.474;5.696;2023-04-03T11:19:18;13.00;60.50
46732;DHT22;32477;51.474;5.696;2023-04-03T11:24:36;12.80;59.30
46732;DHT22;32477;51.474;5.696;2023-04-03T11:27:08;13.20;59.30
46732;DHT22;32477;51.474;5.696;2023-04-03T11:29:40;12.90;59.70
46732;DHT22;32477;51.474;5.696;2023-04-03T11:32:13;13.30;61.00
46732;DHT22;32477;51.474;5.696;2023-04-03T11:34:49;14.00;59.60
46732;DHT22;32477;51.474;5.696;2023-04-03T11:37:25;14.40;59.50
46732;DHT22;32477;51.474;5.696;2023-04-03T11:40:05;15.00;59.80
46732;DHT22;32477;51.474;5.696;2023-04-03T11:42:38;14.30;57.10
46732;DHT22;32477;51.474;5.696;2023-04-03T11:46:10;13.60;58.30
46732;DHT22;32477;51.474;5.696;2023-04-03T11:50:56;14.40;57.90
46732;DHT22;32477;51.474;5.696;2023-04-03T11:53:31;14.10;55.40
46732;DHT22;32477;51.474;5.696;2023-04-03T11:58:26;14.30;57.50
46732;DHT22;32477;51.474;5.696;2023-04-03T12:01:04;14.30;58.50
46732;DHT22;32477;51.474;5.696;2023-04-03T12:08:50;12.70;59.00
46732;DHT22;32477;51.474;5.696;2023-04-03T12:11:29;14.00;58.70
46732;DHT22;32477;51.474;5.696;2023-04-03T12:16:26;14.60;58.40
46732;DHT22;32477;51.474;5.696;2023-04-03T12:26:43;14.10;60.30
46732;DHT22;32477;51.474;5.696;2023-04-03T12:29:23;14.30;59.40
46732;DHT22;32477;51.474;5.696;2023-04-03T12:46:22;12.80;61.10
46732;DHT22;32477;51.474;5.696;2023-04-03T12:48:54;12.80;60.90
46732;DHT22;32477;51.474;5.696;2023-04-03T12:51:35;12.80;62.20
46732;DHT22;32477;51.474;5.696;2023-04-03T12:54:13;13.00;61.90
46732;DHT22;32477;51.474;5.696;2023-04-03T12:56:40;13.40;59.60
46732;DHT22;32477;51.474;5.696;2023-04-03T12:59:20;12.70;59.50
46732;DHT22;32477;51.474;5.696;2023-04-03T13:01:57;13.50;59.70
46732;DHT22;32477;51.474;5.696;2023-04-03T13:04:23;14.00;58.50
46732;DHT22;32477;51.474;5.696;2023-04-03T13:06:50;13.80;60.20
46732;DHT22;32477;51.474;5.696;2023-04-03T13:09:27;12.70;61.60
46732;DHT22;32477;51.474;5.696;2023-04-03T13:12:00;12.90;61.00
46732;DHT22;32477;51.474;5.696;2023-04-03T13:14:27;13.20;61.00
46732;DHT22;32477;51.474;5.696;2023-04-03T13:17:00;13.00;60.90
46732;DHT22;32477;51.474;5.696;2023-04-03T13:19:28;13.10;59.90
46732;DHT22;32477;51.474;5.696;2023-04-03T13:24:23;13.50;60.90
46732;DHT22;32477;51.474;5.696;2023-04-03T13:26:51;13.90;59.50
46732;DHT22;32477;51.474;5.696;2023-04-03T13:29:25;14.20;60.90
46732;DHT22;32477;51.474;5.696;2023-04-03T13:31:53;13.90;60.70
46732;DHT22;32477;51.474;5.696;2023-04-03T13:34:21;13.20;61.20
46732;DHT22;32477;51.474;5.696;2023-04-03T13:39:25;12.80;62.10
46732;DHT22;32477;51.474;5.696;2023-04-03T13:41:54;12.80;61.20
46732;DHT22;32477;51.474;5.696;2023-04-03T13:46:53;13.20;62.80
46732;DHT22;32477;51.474;5.696;2023-04-03T13:49:32;13.20;62.30
46732;DHT22;32477;51.474;5.696;2023-04-03T13:51:58;12.80;62.70
46732;DHT22;32477;51.474;5.696;2023-04-03T13:54:37;12.80;63.20
46732;DHT22;32477;51.474;5.696;2023-04-03T13:57:10;13.50;63.30
46732;DHT22;32477;51.474;5.696;2023-04-03T13:59:37;14.40;63.00
46732;DHT22;32477;51.474;5.696;2023-04-03T14:04:31;12.60;63.10
46732;DHT22;32477;51.474;5.696;2023-04-03T14:06:58;12.80;63.10
46732;DHT22;32477;51.474;5.696;2023-04-03T14:09:26;13.30;63.10
46732;DHT22;32477;51.474;5.696;2023-04-03T14:12:16;13.80;61.40
46732;DHT22;32477;51.474;5.696;2023-04-03T14:14:40;13.80;61.00
46732;DHT22;32477;51.474;5.696;2023-04-03T14:17:21;13.80;63.10
46732;DHT22;32477;51.474;5.696;2023-04-03T14:19:48;13.30;60.80
46732;DHT22;32477;51.474;5.696;2023-04-03T14:22:18;13.90;61.40
46732;DHT22;32477;51.474;5.696;2023-04-03T14:24:46;12.90;61.80
46732;DHT22;32477;51.474;5.696;2023-04-03T14:27:22;13.20;62.50
46732;DHT22;32477;51.474;5.696;2023-04-03T14:29:49;12.70;62.70
46732;DHT22;32477;51.474;5.696;2023-04-03T14:32:17;12.70;62.80
46732;DHT22;32477;51.474;5.696;2023-04-03T14:34:44;12.70;62.90
46732;DHT22;32477;51.474;5.696;2023-04-03T14:37:16;12.60;63.10
46732;DHT22;32477;51.474;5.696;2023-04-03T14:39:43;13.00;63.90
46732;DHT22;32477;51.474;5.696;2023-04-03T14:42:13;13.20;63.40
46732;DHT22;32477;51.474;5.696;2023-04-03T14:44:39;12.10;64.20
46732;DHT22;32477;51.474;5.696;2023-04-03T14:47:12;11.90;65.90
46732;DHT22;32477;51.474;5.696;2023-04-03T14:49:39;10.90;67.90
46732;DHT22;32477;51.474;5.696;2023-04-03T14:52:05;10.40;68.80
46732;DHT22;32477;51.474;5.696;2023-04-03T14:54:31;10.00;68.90
46732;DHT22;32477;51.474;5.696;2023-04-03T14:56:58;9.70;69.90
46732;DHT22;32477;51.474;5.696;2023-04-03T14:59:25;9.60;71.40
46732;DHT22;32477;51.474;5.696;2023-04-03T15:01:50;9.70;71.90
46732;DHT22;32477;51.474;5.696;2023-04-03T15:04:19;9.80;71.10
46732;DHT22;32477;51.474;5.696;2023-04-03T15:06:46;9.70;72.40
46732;DHT22;32477;51.474;5.696;2023-04-03T15:09:20;9.60;70.60
46732;DHT22;32477;51.474;5.696;2023-04-03T15:11:46;9.50;70.50
46732;DHT22;32477;51.474;5.696;2023-04-03T15:14:12;9.40;72.10
46732;DHT22;32477;51.474;5.696;2023-04-03T15:16:38;9.40;72.20
46732;DHT22;32477;51.474;5.696;2023-04-03T15:19:03;9.40;74.20
46732;DHT22;32477;51.474;5.696;2023-04-03T15:21:29;9.40;73.20
46732;DHT22;32477;51.474;5.696;2023-04-03T15:23:54;9.40;73.00
46732;DHT22;32477;51.474;5.696;2023-04-03T15:26:20;9.50;73.40
46732;DHT22;32477;51.474;5.696;2023-04-03T15:28:46;9.40;73.90
46732;DHT22;32477;51.474;5.696;2023-04-03T15:31:12;9.50;73.40
46732;DHT22;32477;51.474;5.696;2023-04-03T15:33:38;9.40;73.90
46732;DHT22;32477;51.474;5.696;2023-04-03T15:36:04;9.40;74.60
46732;DHT22;32477;51.474;5.696;2023-04-03T15:38:30;9.40;75.40
46732;DHT22;32477;51.474;5.696;2023-04-03T15:40:56;9.30;72.80
46732;DHT22;32477;51.474;5.696;2023-04-03T15:43:22;9.20;75.20
46732;DHT22;32477;51.474;5.696;2023-04-03T15:45:49;9.30;74.20
46732;DHT22;32477;51.474;5.696;2023-04-03T15:48:16;9.20;74.70
46732;DHT22;32477;51.474;5.696;2023-04-03T15:50:41;9.30;75.90
46732;DHT22;32477;51.474;5.696;2023-04-03T15:53:08;9.30;74.70
46732;DHT22;32477;51.474;5.696;2023-04-03T15:55:36;9.20;73.50
46732;DHT22;32477;51.474;5.696;2023-04-03T15:58:03;9.20;73.80
46732;DHT22;32477;51.474;5.696;2023-04-03T16:00:30;9.10;75.00
46732;DHT22;32477;51.474;5.696;2023-04-03T16:02:59;9.10;75.60
46732;DHT22;32477;51.474;5.696;2023-04-03T16:05:27;9.10;76.30
46732;DHT22;32477;51.474;5.696;2023-04-03T16:07:53;9.10;77.40
46732;DHT22;32477;51.474;5.696;2023-04-03T16:10:20;9.20;77.80
46732;DHT22;32477;51.474;5.696;2023-04-03T16:12:46;9.00;76.00
46732;DHT22;32477;51.474;5.696;2023-04-03T16:15:12;9.00;77.10
46732;DHT22;32477;51.474;5.696;2023-04-03T16:17:38;9.00;78.40
46732;DHT22;32477;51.474;5.696;2023-04-03T16:20:05;8.90;76.20
46732;DHT22;32477;51.474;5.696;2023-04-03T16:22:31;8.80;77.20
46732;DHT22;32477;51.474;5.696;2023-04-03T16:24:57;8.90;78.20
46732;DHT22;32477;51.474;5.696;2023-04-03T16:27:23;8.90;78.40
46732;DHT22;32477;51.474;5.696;2023-04-03T16:29:53;8.80;77.00
46732;DHT22;32477;51.474;5.696;2023-04-03T16:32:19;8.80;78.50
46732;DHT22;32477;51.474;5.696;2023-04-03T16:34:45;8.80;79.80
46732;DHT22;32477;51.474;5.696;2023-04-03T16:37:11;8.80;81.40
46732;DHT22;32477;51.474;5.696;2023-04-03T16:39:36;8.80;83.10
46732;DHT22;32477;51.474;5.696;2023-04-03T16:42:02;8.70;81.10
46732;DHT22;32477;51.474;5.696;2023-04-03T16:44:27;8.60;82.20
46732;DHT22;32477;51.474;5.696;2023-04-03T16:46:54;8.60;82.00
46732;DHT22;32477;51.474;5.696;2023-04-03T16:49:20;8.60;81.40
46732;DHT22;32477;51.474;5.696;2023-04-03T16:51:45;8.60;80.60
46732;DHT22;32477;51.474;5.696;2023-04-03T16:54:11;8.50;81.50
46732;DHT22;32477;51.474;5.696;2023-04-03T16:56:39;8.40;83.30
46732;DHT22;32477;51.474;5.696;2023-04-03T16:59:04;8.40;83.50
46732;DHT22;32477;51.474;5.696;2023-04-03T17:01:30;8.40;84.50
46732;DHT22;32477;51.474;5.696;2023-04-03T17:03:56;8.30;83.90
46732;DHT22;32477;51.474;5.696;2023-04-03T17:06:22;8.20;84.50
46732;DHT22;32477;51.474;5.696;2023-04-03T17:08:50;8.20;84.80
46732;DHT22;32477;51.474;5.696;2023-04-03T17:11:16;8.10;86.00
46732;DHT22;32477;51.474;5.696;2023-04-03T17:13:41;8.10;85.40
46732;DHT22;32477;51.474;5.696;2023-04-03T17:16:13;8.10;87.60
46732;DHT22;32477;51.474;5.696;2023-04-03T17:18:40;8.00;88.30
46732;DHT22;32477;51.474;5.696;2023-04-03T17:21:06;8.00;89.60
46732;DHT22;32477;51.474;5.696;2023-04-03T17:23:32;7.90;88.60
46732;DHT22;32477;51.474;5.696;2023-04-03T17:26:00;7.90;90.10
46732;DHT22;32477;51.474;5.696;2023-04-03T17:28:26;7.90;89.90
46732;DHT22;32477;51.474;5.696;2023-04-03T17:30:55;7.80;90.10
46732;DHT22;32477;51.474;5.696;2023-04-03T17:33:21;7.70;88.90
46732;DHT22;32477;51.474;5.696;2023-04-03T17:35:47;7.70;89.70